createdAt,value
2023-06-20T01:19:14.761Z,18.7
2023-06-20T01:29:17.138Z,18.6
2023-06-20T01:39:19.207Z,18.6
2023-06-20T01:49:21.186Z,18.5
2023-06-20T01:59:23.229Z,18.5
2023-06-20T02:09:25.692Z,18.5
2023-06-20T02:19:28.088Z,18.5
2023-06-20T02:29:29.960Z,18.6
2023-06-20T02:39:32.540Z,18.6
2023-06-20T02:49:34.825Z,18.4
2023-06-20T02:59:37.253Z,18.5
2023-06-20T03:19:41.685Z,18.3
2023-06-20T03:39:46.792Z,18.4
2023-06-20T03:59:51.070Z,18.3
2023-06-20T04:19:55.415Z,18.5
2023-06-20T04:39:59.321Z,18.4
2023-06-20T07:10:37.561Z,21.7
2023-06-20T07:20:40.127Z,21.8
2023-06-20T07:30:43.617Z,23.3
2023-06-20T07:40:45.211Z,23.7
2023-06-20T08:00:49.291Z,23.9
2023-06-20T08:10:51.672Z,23.7
2023-06-20T08:20:53.490Z,24.1
2023-06-20T08:30:56.101Z,24.1
2023-06-20T08:40:58.083Z,24.1
2023-06-20T08:50:59.877Z,24.9
2023-06-20T09:01:02.089Z,24.8
2023-06-20T10:11:16.557Z,26.5
2023-06-20T10:31:20.250Z,26.4
2023-06-20T14:52:17.183Z,29.6
2023-06-20T15:32:26.642Z,29.1
2023-06-20T15:42:29.032Z,29
2023-06-20T15:52:31.531Z,26.9
2023-06-20T16:02:33.332Z,26.7
2023-06-20T16:12:35.470Z,26.5
2023-06-20T16:22:37.137Z,25.9
2023-06-20T16:32:39.754Z,25.7
2023-06-20T16:42:42.051Z,22.3
2023-06-20T16:52:43.957Z,21.5
2023-06-20T17:02:46.492Z,21.7
2023-06-20T17:12:48.350Z,21.8
2023-06-20T17:22:50.322Z,21.8
2023-06-20T17:32:52.304Z,22.2
2023-06-20T17:42:54.339Z,22.2
2023-06-20T17:52:56.040Z,22.1
2023-06-20T18:02:58.570Z,22
2023-06-20T18:13:00.270Z,22
2023-06-20T18:23:02.654Z,22.2
2023-06-20T18:33:04.948Z,22.4
2023-06-20T18:43:07.375Z,22.4
2023-06-20T18:53:09.617Z,23
2023-06-20T19:03:11.425Z,22.8
2023-06-20T20:23:42.543Z,20.7
2023-06-20T20:43:32.736Z,20.6
2023-06-20T23:54:13.311Z,19.2
